sensor_id;sensor_type;location;lat;lon;timestamp;P1;durP1;ratioP1;P2;durP2;ratioP2
56161;SDS011;42045;52.986;6.014;2023-01-08T00:00:25;6.38;;;5.32;;
56161;SDS011;42045;52.986;6.014;2023-01-08T00:02:51;7.68;;;4.78;;
56161;SDS011;42045;52.986;6.014;2023-01-08T00:05:20;6.55;;;4.70;;
56161;SDS011;42045;52.986;6.014;2023-01-08T00:07:46;7.78;;;5.22;;
56161;SDS011;42045;52.986;6.014;2023-01-08T00:10:11;7.20;;;4.55;;
56161;SDS011;42045;52.986;6.014;2023-01-08T00:12:37;5.78;;;5.07;;
56161;SDS011;42045;52.986;6.014;2023-01-08T00:15:03;6.65;;;4.65;;
56161;SDS011;42045;52.986;6.014;2023-01-08T00:17:29;8.05;;;4.90;;
56161;SDS011;42045;52.986;6.014;2023-01-08T00:19:54;7.38;;;5.03;;
56161;SDS011;42045;52.986;6.014;2023-01-08T00:22:20;7.70;;;4.93;;
56161;SDS011;42045;52.986;6.014;2023-01-08T00:24:45;9.95;;;5.47;;
56161;SDS011;42045;52.986;6.014;2023-01-08T00:27:11;7.57;;;5.05;;
56161;SDS011;42045;52.986;6.014;2023-01-08T00:29:37;9.13;;;5.35;;
56161;SDS011;42045;52.986;6.014;2023-01-08T00:32:03;7.40;;;4.88;;
56161;SDS011;42045;52.986;6.014;2023-01-08T00:34:28;6.25;;;4.90;;
56161;SDS011;42045;52.986;6.014;2023-01-08T00:36:54;8.07;;;5.20;;
56161;SDS011;42045;52.986;6.014;2023-01-08T00:39:20;4.93;;;4.47;;
56161;SDS011;42045;52.986;6.014;2023-01-08T00:41:45;5.95;;;5.35;;
56161;SDS011;42045;52.986;6.014;2023-01-08T00:44:12;6.70;;;4.90;;
56161;SDS011;42045;52.986;6.014;2023-01-08T00:46:37;7.38;;;4.60;;
56161;SDS011;42045;52.986;6.014;2023-01-08T00:49:03;7.10;;;4.95;;
56161;SDS011;42045;52.986;6.014;2023-01-08T00:51:29;6.03;;;4.38;;
56161;SDS011;42045;52.986;6.014;2023-01-08T00:53:54;9.13;;;5.95;;
56161;SDS011;42045;52.986;6.014;2023-01-08T00:56:20;5.50;;;4.25;;
56161;SDS011;42045;52.986;6.014;2023-01-08T00:58:46;5.32;;;4.68;;
56161;SDS011;42045;52.986;6.014;2023-01-08T01:01:12;6.22;;;4.30;;
56161;SDS011;42045;52.986;6.014;2023-01-08T01:03:39;7.28;;;4.70;;
56161;SDS011;42045;52.986;6.014;2023-01-08T01:06:04;5.85;;;4.35;;
56161;SDS011;42045;52.986;6.014;2023-01-08T01:08:31;7.90;;;4.47;;
56161;SDS011;42045;52.986;6.014;2023-01-08T01:10:58;6.32;;;4.43;;
56161;SDS011;42045;52.986;6.014;2023-01-08T01:13:24;6.50;;;4.32;;
56161;SDS011;42045;52.986;6.014;2023-01-08T01:15:56;5.78;;;4.20;;
56161;SDS011;42045;52.986;6.014;2023-01-08T01:18:23;6.25;;;4.28;;
56161;SDS011;42045;52.986;6.014;2023-01-08T01:20:48;10.15;;;4.60;;
56161;SDS011;42045;52.986;6.014;2023-01-08T01:23:15;6.43;;;4.00;;
56161;SDS011;42045;52.986;6.014;2023-01-08T01:25:41;5.57;;;4.57;;
56161;SDS011;42045;52.986;6.014;2023-01-08T01:28:06;7.50;;;4.60;;
56161;SDS011;42045;52.986;6.014;2023-01-08T01:30:32;8.35;;;4.47;;
56161;SDS011;42045;52.986;6.014;2023-01-08T01:32:58;7.93;;;4.72;;
56161;SDS011;42045;52.986;6.014;2023-01-08T01:35:23;7.72;;;5.03;;
56161;SDS011;42045;52.986;6.014;2023-01-08T01:37:49;7.97;;;4.43;;
56161;SDS011;42045;52.986;6.014;2023-01-08T01:40:14;14.60;;;5.50;;
56161;SDS011;42045;52.986;6.014;2023-01-08T01:42:40;9.27;;;4.30;;
56161;SDS011;42045;52.986;6.014;2023-01-08T01:47:39;7.28;;;3.30;;
56161;SDS011;42045;52.986;6.014;2023-01-08T01:52:48;7.72;;;3.35;;
56161;SDS011;42045;52.986;6.014;2023-01-08T01:55:18;8.50;;;2.92;;
56161;SDS011;42045;52.986;6.014;2023-01-08T01:57:45;10.75;;;3.17;;
56161;SDS011;42045;52.986;6.014;2023-01-08T02:00:14;8.75;;;3.08;;
56161;SDS011;42045;52.986;6.014;2023-01-08T02:02:40;8.52;;;3.00;;
56161;SDS011;42045;52.986;6.014;2023-01-08T02:05:06;6.93;;;2.60;;
56161;SDS011;42045;52.986;6.014;2023-01-08T02:12:43;11.18;;;2.97;;
56161;SDS011;42045;52.986;6.014;2023-01-08T02:15:14;13.23;;;2.63;;
56161;SDS011;42045;52.986;6.014;2023-01-08T02:20:19;11.23;;;2.65;;
56161;SDS011;42045;52.986;6.014;2023-01-08T02:26:03;7.82;;;2.20;;
56161;SDS011;42045;52.986;6.014;2023-01-08T02:28:31;14.32;;;2.60;;
56161;SDS011;42045;52.986;6.014;2023-01-08T02:31:02;12.18;;;2.97;;
56161;SDS011;42045;52.986;6.014;2023-01-08T02:33:30;16.27;;;3.30;;
56161;SDS011;42045;52.986;6.014;2023-01-08T02:36:12;11.02;;;2.88;;
56161;SDS011;42045;52.986;6.014;2023-01-08T02:39:05;19.25;;;3.45;;
56161;SDS011;42045;52.986;6.014;2023-01-08T02:42:05;11.10;;;3.60;;
56161;SDS011;42045;52.986;6.014;2023-01-08T02:47:33;13.02;;;2.90;;
56161;SDS011;42045;52.986;6.014;2023-01-08T02:50:13;9.50;;;2.83;;
56161;SDS011;42045;52.986;6.014;2023-01-08T02:52:54;10.82;;;2.65;;
56161;SDS011;42045;52.986;6.014;2023-01-08T02:55:32;11.32;;;3.03;;
56161;SDS011;42045;52.986;6.014;2023-01-08T02:57:59;15.43;;;3.15;;
56161;SDS011;42045;52.986;6.014;2023-01-08T03:00:27;12.63;;;2.78;;
56161;SDS011;42045;52.986;6.014;2023-01-08T03:03:00;14.88;;;3.60;;
56161;SDS011;42045;52.986;6.014;2023-01-08T03:05:35;15.30;;;3.58;;
56161;SDS011;42045;52.986;6.014;2023-01-08T03:08:04;15.30;;;2.75;;
56161;SDS011;42045;52.986;6.014;2023-01-08T03:10:30;9.50;;;2.42;;
56161;SDS011;42045;52.986;6.014;2023-01-08T03:15:35;13.02;;;3.15;;
56161;SDS011;42045;52.986;6.014;2023-01-08T03:18:09;12.50;;;2.63;;
56161;SDS011;42045;52.986;6.014;2023-01-08T03:20:38;11.57;;;2.80;;
56161;SDS011;42045;52.986;6.014;2023-01-08T03:23:05;12.75;;;3.50;;
56161;SDS011;42045;52.986;6.014;2023-01-08T03:25:33;14.60;;;2.80;;
56161;SDS011;42045;52.986;6.014;2023-01-08T03:28:04;14.88;;;3.30;;
56161;SDS011;42045;52.986;6.014;2023-01-08T03:30:34;8.18;;;2.78;;
56161;SDS011;42045;52.986;6.014;2023-01-08T03:33:02;11.98;;;3.13;;
56161;SDS011;42045;52.986;6.014;2023-01-08T03:35:30;8.38;;;3.58;;
56161;SDS011;42045;52.986;6.014;2023-01-08T03:37:59;9.20;;;2.70;;
56161;SDS011;42045;52.986;6.014;2023-01-08T03:40:34;13.48;;;3.75;;
56161;SDS011;42045;52.986;6.014;2023-01-08T03:43:04;7.15;;;2.97;;
56161;SDS011;42045;52.986;6.014;2023-01-08T03:45:30;8.65;;;3.08;;
56161;SDS011;42045;52.986;6.014;2023-01-08T03:47:57;11.90;;;3.42;;
56161;SDS011;42045;52.986;6.014;2023-01-08T03:50:25;9.05;;;4.35;;
56161;SDS011;42045;52.986;6.014;2023-01-08T03:52:53;7.70;;;3.38;;
56161;SDS011;42045;52.986;6.014;2023-01-08T03:55:19;12.40;;;3.42;;
56161;SDS011;42045;52.986;6.014;2023-01-08T03:57:45;10.32;;;3.40;;
56161;SDS011;42045;52.986;6.014;2023-01-08T04:00:11;7.70;;;2.88;;
56161;SDS011;42045;52.986;6.014;2023-01-08T04:02:37;9.80;;;3.30;;
56161;SDS011;42045;52.986;6.014;2023-01-08T04:05:03;10.00;;;3.58;;
56161;SDS011;42045;52.986;6.014;2023-01-08T04:07:28;7.50;;;3.50;;
56161;SDS011;42045;52.986;6.014;2023-01-08T04:09:55;8.23;;;2.88;;
56161;SDS011;42045;52.986;6.014;2023-01-08T04:12:20;9.27;;;3.15;;
56161;SDS011;42045;52.986;6.014;2023-01-08T04:14:48;7.10;;;3.65;;
56161;SDS011;42045;52.986;6.014;2023-01-08T04:17:14;10.73;;;3.92;;
56161;SDS011;42045;52.986;6.014;2023-01-08T04:19:39;7.82;;;3.42;;
56161;SDS011;42045;52.986;6.014;2023-01-08T04:22:05;11.00;;;4.15;;
56161;SDS011;42045;52.986;6.014;2023-01-08T04:24:33;8.93;;;3.97;;
56161;SDS011;42045;52.986;6.014;2023-01-08T04:26:58;9.00;;;4.40;;
56161;SDS011;42045;52.986;6.014;2023-01-08T04:29:24;7.97;;;3.88;;
56161;SDS011;42045;52.986;6.014;2023-01-08T04:31:50;6.05;;;3.63;;
56161;SDS011;42045;52.986;6.014;2023-01-08T04:34:15;7.90;;;3.65;;
56161;SDS011;42045;52.986;6.014;2023-01-08T04:36:41;8.23;;;3.63;;
56161;SDS011;42045;52.986;6.014;2023-01-08T04:39:07;9.95;;;4.35;;
56161;SDS011;42045;52.986;6.014;2023-01-08T04:41:34;7.38;;;3.67;;
56161;SDS011;42045;52.986;6.014;2023-01-08T04:43:59;7.07;;;4.07;;
56161;SDS011;42045;52.986;6.014;2023-01-08T04:46:25;8.45;;;3.95;;
56161;SDS011;42045;52.986;6.014;2023-01-08T04:48:51;7.50;;;4.28;;
56161;SDS011;42045;52.986;6.014;2023-01-08T04:51:16;9.10;;;3.97;;
56161;SDS011;42045;52.986;6.014;2023-01-08T04:53:42;5.65;;;3.75;;
56161;SDS011;42045;52.986;6.014;2023-01-08T04:56:09;7.18;;;4.25;;
56161;SDS011;42045;52.986;6.014;2023-01-08T04:58:36;7.18;;;4.55;;
56161;SDS011;42045;52.986;6.014;2023-01-08T05:01:12;6.43;;;4.10;;
56161;SDS011;42045;52.986;6.014;2023-01-08T05:03:41;9.20;;;4.43;;
56161;SDS011;42045;52.986;6.014;2023-01-08T05:06:07;6.65;;;3.90;;
56161;SDS011;42045;52.986;6.014;2023-01-08T05:08:33;6.57;;;3.60;;
56161;SDS011;42045;52.986;6.014;2023-01-08T05:10:59;6.78;;;3.30;;
56161;SDS011;42045;52.986;6.014;2023-01-08T05:13:25;8.60;;;3.40;;
56161;SDS011;42045;52.986;6.014;2023-01-08T05:15:51;7.43;;;3.42;;
56161;SDS011;42045;52.986;6.014;2023-01-08T05:18:17;9.40;;;3.65;;
56161;SDS011;42045;52.986;6.014;2023-01-08T05:20:43;7.40;;;3.22;;
56161;SDS011;42045;52.986;6.014;2023-01-08T05:23:08;8.48;;;3.10;;
56161;SDS011;42045;52.986;6.014;2023-01-08T05:25:34;6.85;;;3.00;;
56161;SDS011;42045;52.986;6.014;2023-01-08T05:28:00;7.68;;;2.80;;
56161;SDS011;42045;52.986;6.014;2023-01-08T05:30:26;6.65;;;2.72;;
56161;SDS011;42045;52.986;6.014;2023-01-08T05:32:51;9.00;;;2.90;;
56161;SDS011;42045;52.986;6.014;2023-01-08T05:35:17;10.20;;;3.47;;
56161;SDS011;42045;52.986;6.014;2023-01-08T05:37:43;8.25;;;2.40;;
56161;SDS011;42045;52.986;6.014;2023-01-08T05:40:09;6.13;;;2.65;;
56161;SDS011;42045;52.986;6.014;2023-01-08T05:42:35;6.93;;;2.72;;
56161;SDS011;42045;52.986;6.014;2023-01-08T05:45:04;8.35;;;2.40;;
56161;SDS011;42045;52.986;6.014;2023-01-08T05:47:31;6.18;;;2.00;;
56161;SDS011;42045;52.986;6.014;2023-01-08T05:49:57;10.05;;;2.28;;
56161;SDS011;42045;52.986;6.014;2023-01-08T05:52:23;9.35;;;2.80;;
56161;SDS011;42045;52.986;6.014;2023-01-08T05:54:49;11.00;;;2.40;;
56161;SDS011;42045;52.986;6.014;2023-01-08T05:57:15;9.43;;;2.45;;
56161;SDS011;42045;52.986;6.014;2023-01-08T05:59:41;5.63;;;2.28;;
56161;SDS011;42045;52.986;6.014;2023-01-08T06:02:07;6.97;;;2.45;;
56161;SDS011;42045;52.986;6.014;2023-01-08T06:04:33;8.95;;;2.40;;
56161;SDS011;42045;52.986;6.014;2023-01-08T06:06:58;5.47;;;2.50;;
56161;SDS011;42045;52.986;6.014;2023-01-08T06:09:24;6.10;;;1.80;;
56161;SDS011;42045;52.986;6.014;2023-01-08T06:11:50;6.85;;;2.28;;
56161;SDS011;42045;52.986;6.014;2023-01-08T06:14:17;8.00;;;2.33;;
56161;SDS011;42045;52.986;6.014;2023-01-08T06:16:43;10.48;;;2.88;;
56161;SDS011;42045;52.986;6.014;2023-01-08T06:19:09;10.23;;;3.05;;
56161;SDS011;42045;52.986;6.014;2023-01-08T06:21:35;6.68;;;3.13;;
56161;SDS011;42045;52.986;6.014;2023-01-08T06:24:02;11.60;;;3.90;;
56161;SDS011;42045;52.986;6.014;2023-01-08T06:26:28;5.80;;;2.88;;
56161;SDS011;42045;52.986;6.014;2023-01-08T06:28:53;10.27;;;3.42;;
56161;SDS011;42045;52.986;6.014;2023-01-08T06:31:19;8.23;;;3.05;;
56161;SDS011;42045;52.986;6.014;2023-01-08T06:33:45;5.32;;;3.05;;
56161;SDS011;42045;52.986;6.014;2023-01-08T06:36:10;7.95;;;3.85;;
56161;SDS011;42045;52.986;6.014;2023-01-08T06:38:36;11.50;;;3.65;;
56161;SDS011;42045;52.986;6.014;2023-01-08T06:41:03;7.32;;;3.58;;
56161;SDS011;42045;52.986;6.014;2023-01-08T06:43:29;8.20;;;4.05;;
56161;SDS011;42045;52.986;6.014;2023-01-08T06:45:55;8.13;;;5.18;;
56161;SDS011;42045;52.986;6.014;2023-01-08T06:48:22;8.43;;;4.43;;
56161;SDS011;42045;52.986;6.014;2023-01-08T06:50:49;9.57;;;4.85;;
56161;SDS011;42045;52.986;6.014;2023-01-08T06:53:15;6.90;;;4.20;;
56161;SDS011;42045;52.986;6.014;2023-01-08T06:55:41;10.90;;;5.45;;
56161;SDS011;42045;52.986;6.014;2023-01-08T06:58:07;17.33;;;5.82;;
56161;SDS011;42045;52.986;6.014;2023-01-08T07:00:36;11.45;;;6.07;;
56161;SDS011;42045;52.986;6.014;2023-01-08T07:03:02;9.32;;;6.68;;
56161;SDS011;42045;52.986;6.014;2023-01-08T07:05:28;9.07;;;5.55;;
56161;SDS011;42045;52.986;6.014;2023-01-08T07:07:54;8.52;;;5.95;;
56161;SDS011;42045;52.986;6.014;2023-01-08T07:10:20;12.80;;;5.85;;
56161;SDS011;42045;52.986;6.014;2023-01-08T07:12:47;12.18;;;5.85;;
56161;SDS011;42045;52.986;6.014;2023-01-08T07:15:13;10.32;;;5.30;;
56161;SDS011;42045;52.986;6.014;2023-01-08T07:17:39;10.05;;;5.78;;
56161;SDS011;42045;52.986;6.014;2023-01-08T07:20:05;9.90;;;5.75;;
56161;SDS011;42045;52.986;6.014;2023-01-08T07:22:31;12.98;;;5.22;;
56161;SDS011;42045;52.986;6.014;2023-01-08T07:24:57;9.85;;;5.35;;
56161;SDS011;42045;52.986;6.014;2023-01-08T07:27:23;7.80;;;4.88;;
56161;SDS011;42045;52.986;6.014;2023-01-08T07:29:48;10.27;;;4.90;;
56161;SDS011;42045;52.986;6.014;2023-01-08T07:32:14;9.40;;;5.07;;
56161;SDS011;42045;52.986;6.014;2023-01-08T07:34:40;16.85;;;5.40;;
56161;SDS011;42045;52.986;6.014;2023-01-08T07:37:05;9.65;;;5.18;;
56161;SDS011;42045;52.986;6.014;2023-01-08T07:39:31;9.45;;;4.53;;
56161;SDS011;42045;52.986;6.014;2023-01-08T07:41:58;10.90;;;4.80;;
56161;SDS011;42045;52.986;6.014;2023-01-08T07:44:23;13.68;;;5.20;;
56161;SDS011;42045;52.986;6.014;2023-01-08T07:46:49;11.30;;;4.53;;
56161;SDS011;42045;52.986;6.014;2023-01-08T07:49:15;8.05;;;3.97;;
56161;SDS011;42045;52.986;6.014;2023-01-08T07:51:40;8.43;;;4.07;;
56161;SDS011;42045;52.986;6.014;2023-01-08T07:54:06;8.48;;;3.95;;
56161;SDS011;42045;52.986;6.014;2023-01-08T07:56:32;9.75;;;3.80;;
56161;SDS011;42045;52.986;6.014;2023-01-08T07:58:58;10.23;;;4.18;;
56161;SDS011;42045;52.986;6.014;2023-01-08T08:01:23;10.82;;;4.45;;
56161;SDS011;42045;52.986;6.014;2023-01-08T08:03:50;14.02;;;4.47;;
56161;SDS011;42045;52.986;6.014;2023-01-08T08:06:16;11.32;;;4.20;;
56161;SDS011;42045;52.986;6.014;2023-01-08T08:08:41;11.02;;;3.30;;
56161;SDS011;42045;52.986;6.014;2023-01-08T08:11:07;7.22;;;3.30;;
56161;SDS011;42045;52.986;6.014;2023-01-08T08:13:33;9.77;;;3.95;;
56161;SDS011;42045;52.986;6.014;2023-01-08T08:16:02;11.68;;;4.18;;
56161;SDS011;42045;52.986;6.014;2023-01-08T08:18:29;8.85;;;2.85;;
56161;SDS011;42045;52.986;6.014;2023-01-08T08:20:55;8.75;;;3.33;;
56161;SDS011;42045;52.986;6.014;2023-01-08T08:23:22;11.05;;;3.05;;
56161;SDS011;42045;52.986;6.014;2023-01-08T08:25:47;11.45;;;3.72;;
56161;SDS011;42045;52.986;6.014;2023-01-08T08:28:13;8.30;;;2.88;;
56161;SDS011;42045;52.986;6.014;2023-01-08T08:30:39;15.80;;;3.55;;
56161;SDS011;42045;52.986;6.014;2023-01-08T08:33:05;9.98;;;3.08;;
56161;SDS011;42045;52.986;6.014;2023-01-08T08:35:32;12.18;;;3.10;;
56161;SDS011;42045;52.986;6.014;2023-01-08T08:37:58;8.27;;;3.95;;
56161;SDS011;42045;52.986;6.014;2023-01-08T08:40:24;10.18;;;3.13;;
56161;SDS011;42045;52.986;6.014;2023-01-08T08:42:58;8.90;;;3.33;;
56161;SDS011;42045;52.986;6.014;2023-01-08T08:45:24;14.27;;;3.88;;
56161;SDS011;42045;52.986;6.014;2023-01-08T08:47:51;11.48;;;3.95;;
56161;SDS011;42045;52.986;6.014;2023-01-08T08:50:17;17.45;;;4.30;;
56161;SDS011;42045;52.986;6.014;2023-01-08T08:52:43;11.18;;;3.47;;
56161;SDS011;42045;52.986;6.014;2023-01-08T08:55:10;10.60;;;4.05;;
56161;SDS011;42045;52.986;6.014;2023-01-08T08:57:41;9.82;;;3.22;;
56161;SDS011;42045;52.986;6.014;2023-01-08T09:00:11;10.75;;;3.55;;
56161;SDS011;42045;52.986;6.014;2023-01-08T09:02:37;12.18;;;3.70;;
56161;SDS011;42045;52.986;6.014;2023-01-08T09:05:03;8.55;;;3.42;;
56161;SDS011;42045;52.986;6.014;2023-01-08T09:07:29;8.63;;;3.55;;
56161;SDS011;42045;52.986;6.014;2023-01-08T09:09:55;9.95;;;3.40;;
56161;SDS011;42045;52.986;6.014;2023-01-08T09:12:20;8.93;;;3.33;;
56161;SDS011;42045;52.986;6.014;2023-01-08T09:14:46;14.80;;;4.10;;
56161;SDS011;42045;52.986;6.014;2023-01-08T09:17:14;9.05;;;3.42;;
56161;SDS011;42045;52.986;6.014;2023-01-08T09:19:40;6.88;;;2.90;;
56161;SDS011;42045;52.986;6.014;2023-01-08T09:22:05;13.13;;;3.30;;
56161;SDS011;42045;52.986;6.014;2023-01-08T09:24:31;13.05;;;3.45;;
56161;SDS011;42045;52.986;6.014;2023-01-08T09:26:57;10.48;;;3.42;;
56161;SDS011;42045;52.986;6.014;2023-01-08T09:29:23;9.20;;;3.47;;
56161;SDS011;42045;52.986;6.014;2023-01-08T09:31:48;10.05;;;3.47;;
56161;SDS011;42045;52.986;6.014;2023-01-08T09:34:14;11.65;;;3.38;;
56161;SDS011;42045;52.986;6.014;2023-01-08T09:36:40;8.88;;;3.35;;
56161;SDS011;42045;52.986;6.014;2023-01-08T09:39:06;7.82;;;2.97;;
56161;SDS011;42045;52.986;6.014;2023-01-08T09:41:32;8.20;;;2.80;;
56161;SDS011;42045;52.986;6.014;2023-01-08T09:44:01;8.13;;;3.05;;
56161;SDS011;42045;52.986;6.014;2023-01-08T09:46:30;8.15;;;2.90;;
56161;SDS011;42045;52.986;6.014;2023-01-08T09:48:56;13.43;;;3.03;;
56161;SDS011;42045;52.986;6.014;2023-01-08T09:51:43;7.97;;;2.90;;
56161;SDS011;42045;52.986;6.014;2023-01-08T09:54:10;8.45;;;2.50;;
56161;SDS011;42045;52.986;6.014;2023-01-08T09:56:39;10.07;;;2.88;;
56161;SDS011;42045;52.986;6.014;2023-01-08T09:59:05;9.68;;;2.38;;
56161;SDS011;42045;52.986;6.014;2023-01-08T10:01:34;5.35;;;1.73;;
56161;SDS011;42045;52.986;6.014;2023-01-08T10:04:03;12.85;;;2.95;;
56161;SDS011;42045;52.986;6.014;2023-01-08T10:06:33;8.38;;;2.28;;
56161;SDS011;42045;52.986;6.014;2023-01-08T10:08:58;12.27;;;2.55;;
56161;SDS011;42045;52.986;6.014;2023-01-08T10:11:38;10.52;;;2.65;;
56161;SDS011;42045;52.986;6.014;2023-01-08T10:14:15;12.20;;;2.65;;
56161;SDS011;42045;52.986;6.014;2023-01-08T10:16:50;9.75;;;3.22;;
56161;SDS011;42045;52.986;6.014;2023-01-08T10:21:48;12.77;;;2.70;;
56161;SDS011;42045;52.986;6.014;2023-01-08T10:24:14;10.93;;;2.45;;
56161;SDS011;42045;52.986;6.014;2023-01-08T10:26:40;13.48;;;3.00;;
56161;SDS011;42045;52.986;6.014;2023-01-08T10:31:44;12.90;;;2.53;;
56161;SDS011;42045;52.986;6.014;2023-01-08T10:36:51;9.18;;;2.25;;
56161;SDS011;42045;52.986;6.014;2023-01-08T10:39:25;24.15;;;3.40;;
56161;SDS011;42045;52.986;6.014;2023-01-08T10:41:55;11.52;;;3.53;;
56161;SDS011;42045;52.986;6.014;2023-01-08T10:44:26;9.68;;;2.83;;
56161;SDS011;42045;52.986;6.014;2023-01-08T10:46:53;11.45;;;2.72;;
56161;SDS011;42045;52.986;6.014;2023-01-08T10:49:43;11.07;;;3.00;;
56161;SDS011;42045;52.986;6.014;2023-01-08T10:55:11;15.20;;;2.88;;
56161;SDS011;42045;52.986;6.014;2023-01-08T10:57:53;16.23;;;2.60;;
56161;SDS011;42045;52.986;6.014;2023-01-08T11:00:29;15.40;;;3.25;;
56161;SDS011;42045;52.986;6.014;2023-01-08T11:02:58;11.30;;;2.70;;
56161;SDS011;42045;52.986;6.014;2023-01-08T11:05:38;15.23;;;3.10;;
56161;SDS011;42045;52.986;6.014;2023-01-08T11:08:07;13.43;;;3.58;;
56161;SDS011;42045;52.986;6.014;2023-01-08T11:10:42;12.95;;;2.38;;
56161;SDS011;42045;52.986;6.014;2023-01-08T11:13:16;16.60;;;3.40;;
56161;SDS011;42045;52.986;6.014;2023-01-08T11:15:43;10.80;;;3.53;;
56161;SDS011;42045;52.986;6.014;2023-01-08T11:18:19;14.95;;;3.83;;
56161;SDS011;42045;52.986;6.014;2023-01-08T11:20:50;15.25;;;2.90;;
56161;SDS011;42045;52.986;6.014;2023-01-08T11:23:18;12.07;;;3.28;;
56161;SDS011;42045;52.986;6.014;2023-01-08T11:26:07;13.63;;;3.33;;
56161;SDS011;42045;52.986;6.014;2023-01-08T11:28:34;18.20;;;3.85;;
56161;SDS011;42045;52.986;6.014;2023-01-08T11:31:38;7.95;;;2.60;;
56161;SDS011;42045;52.986;6.014;2023-01-08T11:34:15;16.30;;;3.65;;
56161;SDS011;42045;52.986;6.014;2023-01-08T11:36:54;10.55;;;3.35;;
56161;SDS011;42045;52.986;6.014;2023-01-08T11:39:25;13.95;;;4.28;;
56161;SDS011;42045;52.986;6.014;2023-01-08T11:44:35;12.05;;;2.97;;
56161;SDS011;42045;52.986;6.014;2023-01-08T11:52:47;12.57;;;3.90;;
56161;SDS011;42045;52.986;6.014;2023-01-08T11:55:22;15.10;;;3.38;;
56161;SDS011;42045;52.986;6.014;2023-01-08T11:58:12;11.93;;;3.30;;
56161;SDS011;42045;52.986;6.014;2023-01-08T12:00:58;19.50;;;3.67;;
56161;SDS011;42045;52.986;6.014;2023-01-08T12:03:53;12.45;;;3.70;;
56161;SDS011;42045;52.986;6.014;2023-01-08T12:12:06;11.43;;;4.20;;
56161;SDS011;42045;52.986;6.014;2023-01-08T12:17:42;12.35;;;4.65;;
56161;SDS011;42045;52.986;6.014;2023-01-08T12:20:37;8.38;;;4.07;;
56161;SDS011;42045;52.986;6.014;2023-01-08T12:23:18;14.15;;;4.57;;
56161;SDS011;42045;52.986;6.014;2023-01-08T12:28:47;17.30;;;4.40;;
56161;SDS011;42045;52.986;6.014;2023-01-08T12:37:13;15.73;;;4.15;;
56161;SDS011;42045;52.986;6.014;2023-01-08T12:39:53;14.05;;;4.15;;
56161;SDS011;42045;52.986;6.014;2023-01-08T12:42:25;15.75;;;5.30;;
56161;SDS011;42045;52.986;6.014;2023-01-08T12:44:55;16.15;;;3.75;;
56161;SDS011;42045;52.986;6.014;2023-01-08T12:47:24;16.27;;;3.78;;
56161;SDS011;42045;52.986;6.014;2023-01-08T12:50:19;15.10;;;4.70;;
56161;SDS011;42045;52.986;6.014;2023-01-08T12:53:08;11.63;;;3.45;;
56161;SDS011;42045;52.986;6.014;2023-01-08T13:04:01;13.15;;;3.78;;
56161;SDS011;42045;52.986;6.014;2023-01-08T13:06:28;13.20;;;3.47;;
56161;SDS011;42045;52.986;6.014;2023-01-08T13:08:55;16.60;;;4.38;;
56161;SDS011;42045;52.986;6.014;2023-01-08T13:11:48;14.30;;;4.70;;
56161;SDS011;42045;52.986;6.014;2023-01-08T13:14:15;14.98;;;3.50;;
56161;SDS011;42045;52.986;6.014;2023-01-08T13:16:43;14.25;;;4.40;;
56161;SDS011;42045;52.986;6.014;2023-01-08T13:19:26;14.63;;;4.50;;
56161;SDS011;42045;52.986;6.014;2023-01-08T13:21:55;14.18;;;3.58;;
56161;SDS011;42045;52.986;6.014;2023-01-08T13:29:46;12.88;;;3.42;;
56161;SDS011;42045;52.986;6.014;2023-01-08T13:34:58;13.15;;;3.97;;
56161;SDS011;42045;52.986;6.014;2023-01-08T13:37:43;12.05;;;3.30;;
56161;SDS011;42045;52.986;6.014;2023-01-08T13:43:03;12.18;;;3.17;;
56161;SDS011;42045;52.986;6.014;2023-01-08T13:45:35;7.18;;;2.72;;
56161;SDS011;42045;52.986;6.014;2023-01-08T13:48:01;10.77;;;2.97;;
56161;SDS011;42045;52.986;6.014;2023-01-08T13:50:27;10.07;;;3.42;;
56161;SDS011;42045;52.986;6.014;2023-01-08T13:52:56;6.90;;;2.80;;
56161;SDS011;42045;52.986;6.014;2023-01-08T13:55:27;8.18;;;2.40;;
56161;SDS011;42045;52.986;6.014;2023-01-08T13:58:06;7.30;;;2.30;;
56161;SDS011;42045;52.986;6.014;2023-01-08T14:03:20;14.45;;;3.35;;
56161;SDS011;42045;52.986;6.014;2023-01-08T14:11:29;10.57;;;2.65;;
56161;SDS011;42045;52.986;6.014;2023-01-08T14:14:07;9.57;;;3.13;;
56161;SDS011;42045;52.986;6.014;2023-01-08T14:16:39;15.90;;;3.13;;
56161;SDS011;42045;52.986;6.014;2023-01-08T14:19:05;8.32;;;3.05;;
56161;SDS011;42045;52.986;6.014;2023-01-08T14:21:32;13.18;;;4.70;;
56161;SDS011;42045;52.986;6.014;2023-01-08T14:23:58;9.40;;;2.70;;
56161;SDS011;42045;52.986;6.014;2023-01-08T14:28:59;8.40;;;2.95;;
56161;SDS011;42045;52.986;6.014;2023-01-08T14:31:26;9.10;;;2.53;;
56161;SDS011;42045;52.986;6.014;2023-01-08T14:33:56;7.38;;;3.00;;
56161;SDS011;42045;52.986;6.014;2023-01-08T14:36:23;7.15;;;2.00;;
56161;SDS011;42045;52.986;6.014;2023-01-08T14:38:50;9.90;;;2.63;;
56161;SDS011;42045;52.986;6.014;2023-01-08T14:41:38;5.53;;;2.40;;
56161;SDS011;42045;52.986;6.014;2023-01-08T14:44:22;9.02;;;2.50;;
56161;SDS011;42045;52.986;6.014;2023-01-08T14:46:52;6.88;;;2.88;;
56161;SDS011;42045;52.986;6.014;2023-01-08T14:49:26;6.70;;;2.42;;
56161;SDS011;42045;52.986;6.014;2023-01-08T14:51:55;10.35;;;2.75;;
56161;SDS011;42045;52.986;6.014;2023-01-08T14:54:25;9.10;;;2.30;;
56161;SDS011;42045;52.986;6.014;2023-01-08T14:56:57;7.05;;;2.33;;
56161;SDS011;42045;52.986;6.014;2023-01-08T14:59:25;8.45;;;3.13;;
56161;SDS011;42045;52.986;6.014;2023-01-08T15:01:55;10.43;;;3.15;;
56161;SDS011;42045;52.986;6.014;2023-01-08T15:04:24;8.05;;;2.72;;
56161;SDS011;42045;52.986;6.014;2023-01-08T15:06:52;9.85;;;2.70;;
56161;SDS011;42045;52.986;6.014;2023-01-08T15:09:33;6.50;;;2.65;;
56161;SDS011;42045;52.986;6.014;2023-01-08T15:12:04;6.13;;;2.47;;
56161;SDS011;42045;52.986;6.014;2023-01-08T15:14:31;7.20;;;2.38;;
56161;SDS011;42045;52.986;6.014;2023-01-08T15:19:56;6.47;;;2.58;;
56161;SDS011;42045;52.986;6.014;2023-01-08T15:22:26;8.35;;;2.55;;
56161;SDS011;42045;52.986;6.014;2023-01-08T15:24:55;6.85;;;2.40;;
56161;SDS011;42045;52.986;6.014;2023-01-08T15:27:23;8.15;;;2.97;;
56161;SDS011;42045;52.986;6.014;2023-01-08T15:29:51;5.03;;;2.28;;
56161;SDS011;42045;52.986;6.014;2023-01-08T15:32:26;8.23;;;2.22;;
56161;SDS011;42045;52.986;6.014;2023-01-08T15:34:54;7.15;;;2.80;;
56161;SDS011;42045;52.986;6.014;2023-01-08T15:37:20;7.13;;;2.13;;
56161;SDS011;42045;52.986;6.014;2023-01-08T15:39:45;7.18;;;2.10;;
56161;SDS011;42045;52.986;6.014;2023-01-08T15:42:18;4.03;;;2.60;;
56161;SDS011;42045;52.986;6.014;2023-01-08T15:45:05;7.65;;;2.00;;
56161;SDS011;42045;52.986;6.014;2023-01-08T15:47:37;4.93;;;1.53;;
56161;SDS011;42045;52.986;6.014;2023-01-08T15:50:03;7.25;;;2.30;;
56161;SDS011;42045;52.986;6.014;2023-01-08T15:52:29;5.38;;;1.70;;
56161;SDS011;42045;52.986;6.014;2023-01-08T15:54:58;6.15;;;1.90;;
56161;SDS011;42045;52.986;6.014;2023-01-08T15:57:25;5.15;;;2.00;;
56161;SDS011;42045;52.986;6.014;2023-01-08T15:59:54;7.20;;;3.17;;
56161;SDS011;42045;52.986;6.014;2023-01-08T16:02:19;5.30;;;2.80;;
56161;SDS011;42045;52.986;6.014;2023-01-08T16:04:50;5.85;;;2.58;;
56161;SDS011;42045;52.986;6.014;2023-01-08T16:07:19;5.57;;;2.47;;
56161;SDS011;42045;52.986;6.014;2023-01-08T16:09:45;3.92;;;2.22;;
56161;SDS011;42045;52.986;6.014;2023-01-08T16:12:11;7.03;;;2.63;;
56161;SDS011;42045;52.986;6.014;2023-01-08T16:14:37;8.82;;;3.25;;
56161;SDS011;42045;52.986;6.014;2023-01-08T16:17:03;4.35;;;2.50;;
56161;SDS011;42045;52.986;6.014;2023-01-08T16:19:30;6.88;;;2.65;;
56161;SDS011;42045;52.986;6.014;2023-01-08T16:21:56;6.13;;;2.80;;
56161;SDS011;42045;52.986;6.014;2023-01-08T16:24:22;7.88;;;3.20;;